sensor_id;sensor_type;location;lat;lon;timestamp;P1;P2;P0
40371;PMS5003;28564;53.346;-6.554;2023-04-07T00:02:02;8;6;
40371;PMS5003;28564;53.346;-6.554;2023-04-07T00:04:30;6;6;
40371;PMS5003;28564;53.346;-6.554;2023-04-07T00:06:57;6;6;
40371;PMS5003;28564;53.346;-6.554;2023-04-07T00:09:24;8;5;
40371;PMS5003;28564;53.346;-6.554;2023-04-07T00:11:52;11;7;
40371;PMS5003;28564;53.346;-6.554;2023-04-07T00:14:19;6;6;
40371;PMS5003;28564;53.346;-6.554;2023-04-07T00:16:46;6;6;
40371;PMS5003;28564;53.346;-6.554;2023-04-07T00:19:13;9;5;
40371;PMS5003;28564;53.346;-6.554;2023-04-07T00:21:40;6;6;
40371;PMS5003;28564;53.346;-6.554;2023-04-07T00:24:08;6;6;
40371;PMS5003;28564;53.346;-6.554;2023-04-07T00:26:35;6;5;
40371;PMS5003;28564;53.346;-6.554;2023-04-07T00:29:02;8;8;
40371;PMS5003;28564;53.346;-6.554;2023-04-07T00:31:29;8;6;
40371;PMS5003;28564;53.346;-6.554;2023-04-07T00:33:57;7;7;
40371;PMS5003;28564;53.346;-6.554;2023-04-07T00:36:24;6;5;
40371;PMS5003;28564;53.346;-6.554;2023-04-07T00:38:51;4;4;
40371;PMS5003;28564;53.346;-6.554;2023-04-07T00:41:18;5;5;
40371;PMS5003;28564;53.346;-6.554;2023-04-07T00:43:46;6;5;
40371;PMS5003;28564;53.346;-6.554;2023-04-07T00:46:15;12;6;
40371;PMS5003;28564;53.346;-6.554;2023-04-07T00:48:42;4;4;
40371;PMS5003;28564;53.346;-6.554;2023-04-07T00:51:10;6;6;
40371;PMS5003;28564;53.346;-6.554;2023-04-07T00:53:38;16;12;
40371;PMS5003;28564;53.346;-6.554;2023-04-07T00:56:06;7;6;
40371;PMS5003;28564;53.346;-6.554;2023-04-07T00:58:33;7;5;
40371;PMS5003;28564;53.346;-6.554;2023-04-07T01:01:05;5;5;
40371;PMS5003;28564;53.346;-6.554;2023-04-07T01:03:38;10;6;
40371;PMS5003;28564;53.346;-6.554;2023-04-07T01:06:10;5;5;
40371;PMS5003;28564;53.346;-6.554;2023-04-07T01:08:47;10;7;
40371;PMS5003;28564;53.346;-6.554;2023-04-07T01:11:22;6;6;
40371;PMS5003;28564;53.346;-6.554;2023-04-07T01:13:52;6;5;
40371;PMS5003;28564;53.346;-6.554;2023-04-07T01:16:23;7;4;
40371;PMS5003;28564;53.346;-6.554;2023-04-07T01:18:53;6;6;
40371;PMS5003;28564;53.346;-6.554;2023-04-07T01:21:39;5;5;
40371;PMS5003;28564;53.346;-6.554;2023-04-07T01:24:18;5;5;
40371;PMS5003;28564;53.346;-6.554;2023-04-07T01:27:12;9;6;
40371;PMS5003;28564;53.346;-6.554;2023-04-07T01:30:00;6;6;
40371;PMS5003;28564;53.346;-6.554;2023-04-07T01:32:28;11;9;
40371;PMS5003;28564;53.346;-6.554;2023-04-07T01:34:57;11;7;
40371;PMS5003;28564;53.346;-6.554;2023-04-07T01:37:26;7;7;
40371;PMS5003;28564;53.346;-6.554;2023-04-07T01:39:54;11;7;
40371;PMS5003;28564;53.346;-6.554;2023-04-07T01:42:21;6;6;
40371;PMS5003;28564;53.346;-6.554;2023-04-07T01:44:51;11;9;
40371;PMS5003;28564;53.346;-6.554;2023-04-07T01:47:19;9;9;
40371;PMS5003;28564;53.346;-6.554;2023-04-07T01:49:46;7;7;
40371;PMS5003;28564;53.346;-6.554;2023-04-07T01:52:15;9;9;
40371;PMS5003;28564;53.346;-6.554;2023-04-07T01:54:43;9;9;
40371;PMS5003;28564;53.346;-6.554;2023-04-07T01:57:10;6;6;
40371;PMS5003;28564;53.346;-6.554;2023-04-07T01:59:37;11;6;
40371;PMS5003;28564;53.346;-6.554;2023-04-07T02:02:05;7;6;
40371;PMS5003;28564;53.346;-6.554;2023-04-07T02:04:34;9;7;
40371;PMS5003;28564;53.346;-6.554;2023-04-07T02:07:07;7;6;
40371;PMS5003;28564;53.346;-6.554;2023-04-07T02:09:37;9;7;
40371;PMS5003;28564;53.346;-6.554;2023-04-07T02:12:08;7;6;
40371;PMS5003;28564;53.346;-6.554;2023-04-07T02:14:40;7;7;
40371;PMS5003;28564;53.346;-6.554;2023-04-07T02:17:09;10;9;
40371;PMS5003;28564;53.346;-6.554;2023-04-07T02:19:37;7;5;
40371;PMS5003;28564;53.346;-6.554;2023-04-07T02:22:04;7;7;
40371;PMS5003;28564;53.346;-6.554;2023-04-07T02:24:32;6;5;
40371;PMS5003;28564;53.346;-6.554;2023-04-07T02:27:00;7;6;
40371;PMS5003;28564;53.346;-6.554;2023-04-07T02:29:27;5;5;
40371;PMS5003;28564;53.346;-6.554;2023-04-07T02:31:55;9;6;
40371;PMS5003;28564;53.346;-6.554;2023-04-07T02:34:22;8;8;
40371;PMS5003;28564;53.346;-6.554;2023-04-07T02:36:49;10;6;
40371;PMS5003;28564;53.346;-6.554;2023-04-07T02:39:17;7;4;
40371;PMS5003;28564;53.346;-6.554;2023-04-07T02:41:44;9;5;
40371;PMS5003;28564;53.346;-6.554;2023-04-07T02:44:11;5;5;
40371;PMS5003;28564;53.346;-6.554;2023-04-07T02:46:39;9;6;
40371;PMS5003;28564;53.346;-6.554;2023-04-07T02:49:06;7;6;
40371;PMS5003;28564;53.346;-6.554;2023-04-07T02:51:33;7;7;
40371;PMS5003;28564;53.346;-6.554;2023-04-07T02:54:01;9;8;
40371;PMS5003;28564;53.346;-6.554;2023-04-07T02:56:28;10;10;
40371;PMS5003;28564;53.346;-6.554;2023-04-07T02:58:55;9;7;
40371;PMS5003;28564;53.346;-6.554;2023-04-07T03:01:23;11;9;
40371;PMS5003;28564;53.346;-6.554;2023-04-07T03:03:50;6;6;
40371;PMS5003;28564;53.346;-6.554;2023-04-07T03:06:17;9;9;
40371;PMS5003;28564;53.346;-6.554;2023-04-07T03:08:45;12;9;
40371;PMS5003;28564;53.346;-6.554;2023-04-07T03:11:12;8;8;
40371;PMS5003;28564;53.346;-6.554;2023-04-07T03:13:40;9;8;
40371;PMS5003;28564;53.346;-6.554;2023-04-07T03:16:07;12;10;
40371;PMS5003;28564;53.346;-6.554;2023-04-07T03:18:34;18;14;
40371;PMS5003;28564;53.346;-6.554;2023-04-07T03:21:02;16;14;
40371;PMS5003;28564;53.346;-6.554;2023-04-07T03:23:29;12;11;
40371;PMS5003;28564;53.346;-6.554;2023-04-07T03:25:56;11;9;
40371;PMS5003;28564;53.346;-6.554;2023-04-07T03:28:24;10;9;
40371;PMS5003;28564;53.346;-6.554;2023-04-07T03:30:51;9;9;
40371;PMS5003;28564;53.346;-6.554;2023-04-07T03:33:18;9;9;
40371;PMS5003;28564;53.346;-6.554;2023-04-07T03:35:46;13;10;
40371;PMS5003;28564;53.346;-6.554;2023-04-07T03:38:13;10;8;
40371;PMS5003;28564;53.346;-6.554;2023-04-07T03:40:40;10;8;
40371;PMS5003;28564;53.346;-6.554;2023-04-07T03:43:08;10;10;
40371;PMS5003;28564;53.346;-6.554;2023-04-07T03:45:35;6;6;
40371;PMS5003;28564;53.346;-6.554;2023-04-07T03:48:02;11;6;
40371;PMS5003;28564;53.346;-6.554;2023-04-07T03:50:31;9;9;
40371;PMS5003;28564;53.346;-6.554;2023-04-07T03:52:58;8;8;
40371;PMS5003;28564;53.346;-6.554;2023-04-07T03:55:25;9;9;
40371;PMS5003;28564;53.346;-6.554;2023-04-07T03:57:52;18;14;
40371;PMS5003;28564;53.346;-6.554;2023-04-07T04:00:19;8;8;
40371;PMS5003;28564;53.346;-6.554;2023-04-07T04:02:47;9;9;
40371;PMS5003;28564;53.346;-6.554;2023-04-07T04:05:14;14;9;
40371;PMS5003;28564;53.346;-6.554;2023-04-07T04:07:41;8;6;
40371;PMS5003;28564;53.346;-6.554;2023-04-07T04:10:09;10;8;
40371;PMS5003;28564;53.346;-6.554;2023-04-07T04:12:36;11;10;
40371;PMS5003;28564;53.346;-6.554;2023-04-07T04:15:04;9;8;
40371;PMS5003;28564;53.346;-6.554;2023-04-07T04:17:32;14;10;
40371;PMS5003;28564;53.346;-6.554;2023-04-07T04:19:59;13;10;
40371;PMS5003;28564;53.346;-6.554;2023-04-07T04:22:26;11;9;
40371;PMS5003;28564;53.346;-6.554;2023-04-07T04:24:54;9;9;
40371;PMS5003;28564;53.346;-6.554;2023-04-07T04:27:21;10;9;
40371;PMS5003;28564;53.346;-6.554;2023-04-07T04:29:49;12;10;
40371;PMS5003;28564;53.346;-6.554;2023-04-07T04:32:16;11;7;
40371;PMS5003;28564;53.346;-6.554;2023-04-07T04:34:43;10;6;
40371;PMS5003;28564;53.346;-6.554;2023-04-07T04:37:11;11;10;
40371;PMS5003;28564;53.346;-6.554;2023-04-07T04:39:38;21;18;
40371;PMS5003;28564;53.346;-6.554;2023-04-07T04:42:06;16;12;
40371;PMS5003;28564;53.346;-6.554;2023-04-07T04:44:33;12;10;
40371;PMS5003;28564;53.346;-6.554;2023-04-07T04:47:01;17;15;
40371;PMS5003;28564;53.346;-6.554;2023-04-07T04:49:28;9;9;
40371;PMS5003;28564;53.346;-6.554;2023-04-07T04:51:55;9;6;
40371;PMS5003;28564;53.346;-6.554;2023-04-07T04:54:23;11;9;
40371;PMS5003;28564;53.346;-6.554;2023-04-07T04:56:50;10;6;
40371;PMS5003;28564;53.346;-6.554;2023-04-07T04:59:17;13;9;
40371;PMS5003;28564;53.346;-6.554;2023-04-07T05:01:45;10;8;
40371;PMS5003;28564;53.346;-6.554;2023-04-07T05:04:12;7;5;
40371;PMS5003;28564;53.346;-6.554;2023-04-07T05:06:39;12;9;
40371;PMS5003;28564;53.346;-6.554;2023-04-07T05:09:07;7;7;
40371;PMS5003;28564;53.346;-6.554;2023-04-07T05:11:34;5;5;
40371;PMS5003;28564;53.346;-6.554;2023-04-07T05:14:01;6;6;
40371;PMS5003;28564;53.346;-6.554;2023-04-07T05:16:29;4;4;
40371;PMS5003;28564;53.346;-6.554;2023-04-07T05:18:56;8;5;
40371;PMS5003;28564;53.346;-6.554;2023-04-07T05:21:23;7;7;
40371;PMS5003;28564;53.346;-6.554;2023-04-07T05:23:51;9;8;
40371;PMS5003;28564;53.346;-6.554;2023-04-07T05:26:19;8;7;
40371;PMS5003;28564;53.346;-6.554;2023-04-07T05:28:46;7;7;
40371;PMS5003;28564;53.346;-6.554;2023-04-07T05:31:14;8;8;
40371;PMS5003;28564;53.346;-6.554;2023-04-07T05:33:41;4;4;
40371;PMS5003;28564;53.346;-6.554;2023-04-07T05:36:08;6;6;
40371;PMS5003;28564;53.346;-6.554;2023-04-07T05:38:36;5;5;
40371;PMS5003;28564;53.346;-6.554;2023-04-07T05:41:03;11;8;
40371;PMS5003;28564;53.346;-6.554;2023-04-07T05:43:31;9;8;
40371;PMS5003;28564;53.346;-6.554;2023-04-07T05:45:58;7;7;
40371;PMS5003;28564;53.346;-6.554;2023-04-07T05:48:25;11;5;
40371;PMS5003;28564;53.346;-6.554;2023-04-07T05:50:53;6;6;
40371;PMS5003;28564;53.346;-6.554;2023-04-07T05:53:20;7;7;
40371;PMS5003;28564;53.346;-6.554;2023-04-07T05:55:48;9;7;
40371;PMS5003;28564;53.346;-6.554;2023-04-07T05:58:15;8;8;
40371;PMS5003;28564;53.346;-6.554;2023-04-07T06:00:42;6;6;
40371;PMS5003;28564;53.346;-6.554;2023-04-07T06:03:10;6;6;
40371;PMS5003;28564;53.346;-6.554;2023-04-07T06:05:37;11;8;
40371;PMS5003;28564;53.346;-6.554;2023-04-07T06:08:05;12;9;
40371;PMS5003;28564;53.346;-6.554;2023-04-07T06:10:32;9;9;
40371;PMS5003;28564;53.346;-6.554;2023-04-07T06:12:59;12;8;
40371;PMS5003;28564;53.346;-6.554;2023-04-07T06:15:26;6;6;
40371;PMS5003;28564;53.346;-6.554;2023-04-07T06:17:54;8;8;
40371;PMS5003;28564;53.346;-6.554;2023-04-07T06:20:21;9;8;
40371;PMS5003;28564;53.346;-6.554;2023-04-07T06:22:49;6;6;
40371;PMS5003;28564;53.346;-6.554;2023-04-07T06:25:16;6;5;
40371;PMS5003;28564;53.346;-6.554;2023-04-07T06:27:43;10;8;
40371;PMS5003;28564;53.346;-6.554;2023-04-07T06:30:11;8;8;
40371;PMS5003;28564;53.346;-6.554;2023-04-07T06:32:39;6;5;
40371;PMS5003;28564;53.346;-6.554;2023-04-07T06:35:07;6;6;
40371;PMS5003;28564;53.346;-6.554;2023-04-07T06:37:35;6;6;
40371;PMS5003;28564;53.346;-6.554;2023-04-07T06:40:02;12;8;
40371;PMS5003;28564;53.346;-6.554;2023-04-07T06:42:29;5;5;
40371;PMS5003;28564;53.346;-6.554;2023-04-07T06:44:57;16;8;
40371;PMS5003;28564;53.346;-6.554;2023-04-07T06:47:23;6;6;
40371;PMS5003;28564;53.346;-6.554;2023-04-07T06:49:51;8;8;
40371;PMS5003;28564;53.346;-6.554;2023-04-07T06:52:18;9;6;
40371;PMS5003;28564;53.346;-6.554;2023-04-07T06:54:46;9;8;
40371;PMS5003;28564;53.346;-6.554;2023-04-07T06:57:13;6;5;
40371;PMS5003;28564;53.346;-6.554;2023-04-07T06:59:40;9;9;
40371;PMS5003;28564;53.346;-6.554;2023-04-07T07:02:07;13;12;
40371;PMS5003;28564;53.346;-6.554;2023-04-07T07:04:35;14;12;
40371;PMS5003;28564;53.346;-6.554;2023-04-07T07:07:02;12;11;
40371;PMS5003;28564;53.346;-6.554;2023-04-07T07:09:30;18;14;
40371;PMS5003;28564;53.346;-6.554;2023-04-07T07:11:57;11;10;
40371;PMS5003;28564;53.346;-6.554;2023-04-07T07:14:24;16;12;
40371;PMS5003;28564;53.346;-6.554;2023-04-07T07:16:51;16;12;
40371;PMS5003;28564;53.346;-6.554;2023-04-07T07:19:18;12;10;
40371;PMS5003;28564;53.346;-6.554;2023-04-07T07:21:46;15;13;
40371;PMS5003;28564;53.346;-6.554;2023-04-07T07:24:13;18;13;
40371;PMS5003;28564;53.346;-6.554;2023-04-07T07:26:41;12;12;
40371;PMS5003;28564;53.346;-6.554;2023-04-07T07:29:08;12;12;
40371;PMS5003;28564;53.346;-6.554;2023-04-07T07:31:36;12;10;
40371;PMS5003;28564;53.346;-6.554;2023-04-07T07:34:03;9;9;
40371;PMS5003;28564;53.346;-6.554;2023-04-07T07:36:30;13;12;
40371;PMS5003;28564;53.346;-6.554;2023-04-07T07:38:58;11;11;
40371;PMS5003;28564;53.346;-6.554;2023-04-07T07:41:25;11;10;
40371;PMS5003;28564;53.346;-6.554;2023-04-07T07:43:52;12;11;
40371;PMS5003;28564;53.346;-6.554;2023-04-07T07:46:19;14;8;
40371;PMS5003;28564;53.346;-6.554;2023-04-07T07:48:47;5;5;
40371;PMS5003;28564;53.346;-6.554;2023-04-07T07:51:14;8;8;
40371;PMS5003;28564;53.346;-6.554;2023-04-07T07:53:41;8;8;
40371;PMS5003;28564;53.346;-6.554;2023-04-07T07:56:09;6;6;
40371;PMS5003;28564;53.346;-6.554;2023-04-07T07:58:36;12;8;
40371;PMS5003;28564;53.346;-6.554;2023-04-07T08:01:03;11;8;
40371;PMS5003;28564;53.346;-6.554;2023-04-07T08:03:31;8;8;
40371;PMS5003;28564;53.346;-6.554;2023-04-07T08:05:58;13;13;
40371;PMS5003;28564;53.346;-6.554;2023-04-07T08:08:25;9;8;
40371;PMS5003;28564;53.346;-6.554;2023-04-07T08:10:52;9;9;
40371;PMS5003;28564;53.346;-6.554;2023-04-07T08:13:20;12;12;
40371;PMS5003;28564;53.346;-6.554;2023-04-07T08:15:47;11;9;
40371;PMS5003;28564;53.346;-6.554;2023-04-07T08:18:14;15;11;
40371;PMS5003;28564;53.346;-6.554;2023-04-07T08:20:42;15;13;
40371;PMS5003;28564;53.346;-6.554;2023-04-07T08:23:09;11;11;
40371;PMS5003;28564;53.346;-6.554;2023-04-07T08:25:37;18;16;
40371;PMS5003;28564;53.346;-6.554;2023-04-07T08:28:05;12;10;
40371;PMS5003;28564;53.346;-6.554;2023-04-07T08:30:32;9;9;
40371;PMS5003;28564;53.346;-6.554;2023-04-07T08:32:59;11;8;
40371;PMS5003;28564;53.346;-6.554;2023-04-07T08:35:26;13;10;
40371;PMS5003;28564;53.346;-6.554;2023-04-07T08:37:54;11;8;
40371;PMS5003;28564;53.346;-6.554;2023-04-07T08:40:21;9;6;
40371;PMS5003;28564;53.346;-6.554;2023-04-07T08:42:49;10;8;
40371;PMS5003;28564;53.346;-6.554;2023-04-07T08:45:17;8;8;
40371;PMS5003;28564;53.346;-6.554;2023-04-07T08:47:45;8;8;
40371;PMS5003;28564;53.346;-6.554;2023-04-07T08:50:16;7;7;
40371;PMS5003;28564;53.346;-6.554;2023-04-07T08:52:45;9;7;
40371;PMS5003;28564;53.346;-6.554;2023-04-07T08:55:16;8;6;
40371;PMS5003;28564;53.346;-6.554;2023-04-07T08:57:43;6;5;
40371;PMS5003;28564;53.346;-6.554;2023-04-07T09:03:55;6;6;
40371;PMS5003;28564;53.346;-6.554;2023-04-07T09:06:23;4;4;
40371;PMS5003;28564;53.346;-6.554;2023-04-07T09:08:50;5;5;
40371;PMS5003;28564;53.346;-6.554;2023-04-07T09:11:18;6;5;
40371;PMS5003;28564;53.346;-6.554;2023-04-07T09:13:45;7;7;
40371;PMS5003;28564;53.346;-6.554;2023-04-07T09:16:12;5;5;
40371;PMS5003;28564;53.346;-6.554;2023-04-07T09:18:39;8;6;
40371;PMS5003;28564;53.346;-6.554;2023-04-07T09:21:07;8;7;
40371;PMS5003;28564;53.346;-6.554;2023-04-07T09:23:35;6;6;
40371;PMS5003;28564;53.346;-6.554;2023-04-07T09:26:17;6;6;
40371;PMS5003;28564;53.346;-6.554;2023-04-07T09:28:48;9;7;
40371;PMS5003;28564;53.346;-6.554;2023-04-07T09:31:17;5;5;
40371;PMS5003;28564;53.346;-6.554;2023-04-07T09:33:44;7;7;
40371;PMS5003;28564;53.346;-6.554;2023-04-07T09:36:11;4;4;
40371;PMS5003;28564;53.346;-6.554;2023-04-07T09:38:39;5;4;
40371;PMS5003;28564;53.346;-6.554;2023-04-07T09:41:08;5;5;
40371;PMS5003;28564;53.346;-6.554;2023-04-07T09:43:36;3;3;
40371;PMS5003;28564;53.346;-6.554;2023-04-07T09:46:06;5;4;
40371;PMS5003;28564;53.346;-6.554;2023-04-07T09:48:34;2;2;
40371;PMS5003;28564;53.346;-6.554;2023-04-07T09:51:04;3;3;
40371;PMS5003;28564;53.346;-6.554;2023-04-07T09:53:40;1;1;
40371;PMS5003;28564;53.346;-6.554;2023-04-07T09:56:09;1;1;
40371;PMS5003;28564;53.346;-6.554;2023-04-07T09:58:37;3;2;
40371;PMS5003;28564;53.346;-6.554;2023-04-07T10:01:05;1;1;
40371;PMS5003;28564;53.346;-6.554;2023-04-07T10:03:33;2;2;
40371;PMS5003;28564;53.346;-6.554;2023-04-07T10:06:00;2;2;
40371;PMS5003;28564;53.346;-6.554;2023-04-07T10:08:29;2;1;
40371;PMS5003;28564;53.346;-6.554;2023-04-07T10:10:59;0;0;
40371;PMS5003;28564;53.346;-6.554;2023-04-07T10:13:27;0;0;
40371;PMS5003;28564;53.346;-6.554;2023-04-07T10:15:55;0;0;
40371;PMS5003;28564;53.346;-6.554;2023-04-07T10:18:25;1;1;
40371;PMS5003;28564;53.346;-6.554;2023-04-07T10:20:55;0;0;
40371;PMS5003;28564;53.346;-6.554;2023-04-07T10:23:25;0;0;
40371;PMS5003;28564;53.346;-6.554;2023-04-07T10:26:01;0;0;
40371;PMS5003;28564;53.346;-6.554;2023-04-07T10:28:31;0;0;
40371;PMS5003;28564;53.346;-6.554;2023-04-07T10:31:00;1;1;
40371;PMS5003;28564;53.346;-6.554;2023-04-07T10:31:06;1;1;
40371;PMS5003;28564;53.346;-6.554;2023-04-07T10:31:08;1;1;
40371;PMS5003;28564;53.346;-6.554;2023-04-07T10:31:12;1;1;
40371;PMS5003;28564;53.346;-6.554;2023-04-07T10:31:16;1;1;
40371;PMS5003;28564;53.346;-6.554;2023-04-07T10:33:44;1;1;
40371;PMS5003;28564;53.346;-6.554;2023-04-07T10:36:14;2;0;
40371;PMS5003;28564;53.346;-6.554;2023-04-07T10:38:41;0;0;
40371;PMS5003;28564;53.346;-6.554;2023-04-07T10:41:45;2;0;
40371;PMS5003;28564;53.346;-6.554;2023-04-07T10:44:43;1;1;
40371;PMS5003;28564;53.346;-6.554;2023-04-07T10:47:12;0;0;
40371;PMS5003;28564;53.346;-6.554;2023-04-07T10:49:39;1;0;
40371;PMS5003;28564;53.346;-6.554;2023-04-07T10:52:42;1;1;
40371;PMS5003;28564;53.346;-6.554;2023-04-07T10:55:41;1;1;
40371;PMS5003;28564;53.346;-6.554;2023-04-07T10:58:13;0;0;
40371;PMS5003;28564;53.346;-6.554;2023-04-07T11:01:15;0;0;
40371;PMS5003;28564;53.346;-6.554;2023-04-07T11:04:00;0;0;
40371;PMS5003;28564;53.346;-6.554;2023-04-07T11:06:27;1;1;
40371;PMS5003;28564;53.346;-6.554;2023-04-07T11:08:54;0;0;
40371;PMS5003;28564;53.346;-6.554;2023-04-07T11:11:38;2;0;
40371;PMS5003;28564;53.346;-6.554;2023-04-07T11:14:06;4;0;
40371;PMS5003;28564;53.346;-6.554;2023-04-07T11:16:36;0;0;
40371;PMS5003;28564;53.346;-6.554;2023-04-07T11:19:06;0;0;
40371;PMS5003;28564;53.346;-6.554;2023-04-07T11:21:33;0;0;
40371;PMS5003;28564;53.346;-6.554;2023-04-07T11:24:00;0;0;
40371;PMS5003;28564;53.346;-6.554;2023-04-07T11:26:27;2;1;
40371;PMS5003;28564;53.346;-6.554;2023-04-07T11:29:02;3;2;
40371;PMS5003;28564;53.346;-6.554;2023-04-07T11:31:29;0;0;
40371;PMS5003;28564;53.346;-6.554;2023-04-07T11:33:58;2;0;
40371;PMS5003;28564;53.346;-6.554;2023-04-07T11:36:27;1;1;
40371;PMS5003;28564;53.346;-6.554;2023-04-07T11:38:56;0;0;
40371;PMS5003;28564;53.346;-6.554;2023-04-07T11:41:25;2;1;
40371;PMS5003;28564;53.346;-6.554;2023-04-07T11:44:09;0;0;
40371;PMS5003;28564;53.346;-6.554;2023-04-07T11:46:50;1;1;
40371;PMS5003;28564;53.346;-6.554;2023-04-07T11:49:19;0;0;
40371;PMS5003;28564;53.346;-6.554;2023-04-07T11:51:46;0;0;
40371;PMS5003;28564;53.346;-6.554;2023-04-07T11:54:13;1;1;
40371;PMS5003;28564;53.346;-6.554;2023-04-07T11:56:41;0;0;
40371;PMS5003;28564;53.346;-6.554;2023-04-07T11:59:17;1;1;
40371;PMS5003;28564;53.346;-6.554;2023-04-07T12:01:45;0;0;
40371;PMS5003;28564;53.346;-6.554;2023-04-07T12:04:12;0;0;
40371;PMS5003;28564;53.346;-6.554;2023-04-07T12:06:40;0;0;
40371;PMS5003;28564;53.346;-6.554;2023-04-07T12:09:21;1;1;
40371;PMS5003;28564;53.346;-6.554;2023-04-07T12:11:51;0;0;
40371;PMS5003;28564;53.346;-6.554;2023-04-07T12:14:18;0;0;
40371;PMS5003;28564;53.346;-6.554;2023-04-07T12:16:46;0;0;
40371;PMS5003;28564;53.346;-6.554;2023-04-07T12:19:13;1;0;
40371;PMS5003;28564;53.346;-6.554;2023-04-07T12:21:40;0;0;
40371;PMS5003;28564;53.346;-6.554;2023-04-07T12:24:07;3;1;
40371;PMS5003;28564;53.346;-6.554;2023-04-07T12:26:34;1;1;
40371;PMS5003;28564;53.346;-6.554;2023-04-07T12:29:01;0;0;
40371;PMS5003;28564;53.346;-6.554;2023-04-07T12:31:28;0;0;
40371;PMS5003;28564;53.346;-6.554;2023-04-07T12:33:55;1;1;
40371;PMS5003;28564;53.346;-6.554;2023-04-07T12:36:22;1;1;
40371;PMS5003;28564;53.346;-6.554;2023-04-07T12:38:49;1;0;
40371;PMS5003;28564;53.346;-6.554;2023-04-07T12:41:17;0;0;
40371;PMS5003;28564;53.346;-6.554;2023-04-07T12:43:44;0;0;
40371;PMS5003;28564;53.346;-6.554;2023-04-07T12:46:11;0;0;
40371;PMS5003;28564;53.346;-6.554;2023-04-07T12:48:38;1;1;
40371;PMS5003;28564;53.346;-6.554;2023-04-07T12:51:05;1;1;
40371;PMS5003;28564;53.346;-6.554;2023-04-07T12:53:32;1;1;
40371;PMS5003;28564;53.346;-6.554;2023-04-07T12:55:59;1;1;
40371;PMS5003;28564;53.346;-6.554;2023-04-07T12:58:27;1;0;
40371;PMS5003;28564;53.346;-6.554;2023-04-07T13:00:55;0;0;
40371;PMS5003;28564;53.346;-6.554;2023-04-07T13:03:21;1;1;
40371;PMS5003;28564;53.346;-6.554;2023-04-07T13:05:48;0;0;
40371;PMS5003;28564;53.346;-6.554;2023-04-07T13:08:15;2;0;
40371;PMS5003;28564;53.346;-6.554;2023-04-07T13:10:43;0;0;
40371;PMS5003;28564;53.346;-6.554;2023-04-07T13:13:10;1;1;
40371;PMS5003;28564;53.346;-6.554;2023-04-07T13:15:38;0;0;
40371;PMS5003;28564;53.346;-6.554;2023-04-07T13:18:06;1;1;
40371;PMS5003;28564;53.346;-6.554;2023-04-07T13:20:33;0;0;
40371;PMS5003;28564;53.346;-6.554;2023-04-07T13:23:01;0;0;
40371;PMS5003;28564;53.346;-6.554;2023-04-07T13:25:29;0;0;
40371;PMS5003;28564;53.346;-6.554;2023-04-07T13:27:56;0;0;
40371;PMS5003;28564;53.346;-6.554;2023-04-07T13:30:24;3;1;
40371;PMS5003;28564;53.346;-6.554;2023-04-07T13:32:51;1;1;
40371;PMS5003;28564;53.346;-6.554;2023-04-07T13:35:19;1;1;
40371;PMS5003;28564;53.346;-6.554;2023-04-07T13:37:46;0;0;
40371;PMS5003;28564;53.346;-6.554;2023-04-07T13:40:14;0;0;
40371;PMS5003;28564;53.346;-6.554;2023-04-07T13:42:47;1;1;
40371;PMS5003;28564;53.346;-6.554;2023-04-07T13:45:14;1;1;
40371;PMS5003;28564;53.346;-6.554;2023-04-07T13:47:42;1;0;
40371;PMS5003;28564;53.346;-6.554;2023-04-07T13:50:09;1;1;
40371;PMS5003;28564;53.346;-6.554;2023-04-07T13:52:37;0;0;
40371;PMS5003;28564;53.346;-6.554;2023-04-07T13:55:05;2;2;
40371;PMS5003;28564;53.346;-6.554;2023-04-07T13:57:33;2;1;
40371;PMS5003;28564;53.346;-6.554;2023-04-07T14:00:01;2;1;
40371;PMS5003;28564;53.346;-6.554;2023-04-07T14:02:28;1;1;
40371;PMS5003;28564;53.346;-6.554;2023-04-07T14:04:56;2;2;
40371;PMS5003;28564;53.346;-6.554;2023-04-07T14:07:23;1;1;
40371;PMS5003;28564;53.346;-6.554;2023-04-07T14:09:51;2;2;
40371;PMS5003;28564;53.346;-6.554;2023-04-07T14:12:18;0;0;
40371;PMS5003;28564;53.346;-6.554;2023-04-07T14:14:45;1;1;
40371;PMS5003;28564;53.346;-6.554;2023-04-07T14:17:13;2;1;
40371;PMS5003;28564;53.346;-6.554;2023-04-07T14:19:40;0;0;
40371;PMS5003;28564;53.346;-6.554;2023-04-07T14:22:08;1;1;
40371;PMS5003;28564;53.346;-6.554;2023-04-07T14:24:35;1;1;
40371;PMS5003;28564;53.346;-6.554;2023-04-07T14:27:02;0;0;
40371;PMS5003;28564;53.346;-6.554;2023-04-07T14:29:29;1;1;
40371;PMS5003;28564;53.346;-6.554;2023-04-07T14:31:56;0;0;
40371;PMS5003;28564;53.346;-6.554;2023-04-07T14:34:24;0;0;
40371;PMS5003;28564;53.346;-6.554;2023-04-07T14:36:52;1;1;
40371;PMS5003;28564;53.346;-6.554;2023-04-07T14:39:20;0;0;
40371;PMS5003;28564;53.346;-6.554;2023-04-07T14:41:48;0;0;
40371;PMS5003;28564;53.346;-6.554;2023-04-07T14:44:16;1;1;
40371;PMS5003;28564;53.346;-6.554;2023-04-07T14:46:43;0;0;
40371;PMS5003;28564;53.346;-6.554;2023-04-07T14:49:10;0;0;
40371;PMS5003;28564;53.346;-6.554;2023-04-07T14:51:38;0;0;
40371;PMS5003;28564;53.346;-6.554;2023-04-07T14:54:06;2;0;
40371;PMS5003;28564;53.346;-6.554;2023-04-07T14:56:34;3;1;
40371;PMS5003;28564;53.346;-6.554;2023-04-07T14:59:01;0;0;
40371;PMS5003;28564;53.346;-6.554;2023-04-07T15:01:29;1;0;
40371;PMS5003;28564;53.346;-6.554;2023-04-07T15:03:57;0;0;
40371;PMS5003;28564;53.346;-6.554;2023-04-07T15:06:24;0;0;
40371;PMS5003;28564;53.346;-6.554;2023-04-07T15:08:52;0;0;
40371;PMS5003;28564;53.346;-6.554;2023-04-07T15:11:19;0;0;
40371;PMS5003;28564;53.346;-6.554;2023-04-07T15:13:47;2;0;
40371;PMS5003;28564;53.346;-6.554;2023-04-07T15:16:15;0;0;
40371;PMS5003;28564;53.346;-6.554;2023-04-07T15:18:43;0;0;
40371;PMS5003;28564;53.346;-6.554;2023-04-07T15:21:11;0;0;
40371;PMS5003;28564;53.346;-6.554;2023-04-07T15:23:39;1;1;
40371;PMS5003;28564;53.346;-6.554;2023-04-07T15:26:06;0;0;
40371;PMS5003;28564;53.346;-6.554;2023-04-07T15:28:34;1;1;
40371;PMS5003;28564;53.346;-6.554;2023-04-07T15:31:02;0;0;
40371;PMS5003;28564;53.346;-6.554;2023-04-07T15:33:30;0;0;
40371;PMS5003;28564;53.346;-6.554;2023-04-07T15:35:57;0;0;
40371;PMS5003;28564;53.346;-6.554;2023-04-07T15:38:24;0;0;
40371;PMS5003;28564;53.346;-6.554;2023-04-07T15:40:53;3;1;
40371;PMS5003;28564;53.346;-6.554;2023-04-07T15:43:20;1;1;
40371;PMS5003;28564;53.346;-6.554;2023-04-07T15:45:48;1;1;
40371;PMS5003;28564;53.346;-6.554;2023-04-07T15:48:16;2;1;
40371;PMS5003;28564;53.346;-6.554;2023-04-07T15:50:44;0;0;
40371;PMS5003;28564;53.346;-6.554;2023-04-07T15:53:11;1;0;
40371;PMS5003;28564;53.346;-6.554;2023-04-07T15:55:39;0;0;
40371;PMS5003;28564;53.346;-6.554;2023-04-07T15:58:07;0;0;
40371;PMS5003;28564;53.346;-6.554;2023-04-07T16:00:34;0;0;
40371;PMS5003;28564;53.346;-6.554;2023-04-07T16:03:03;0;0;
40371;PMS5003;28564;53.346;-6.554;2023-04-07T16:05:31;0;0;
40371;PMS5003;28564;53.346;-6.554;2023-04-07T16:07:58;0;0;
40371;PMS5003;28564;53.346;-6.554;2023-04-07T16:10:27;0;0;
40371;PMS5003;28564;53.346;-6.554;2023-04-07T16:12:54;0;0;
40371;PMS5003;28564;53.346;-6.554;2023-04-07T16:15:21;0;0;
40371;PMS5003;28564;53.346;-6.554;2023-04-07T16:17:48;0;0;
40371;PMS5003;28564;53.346;-6.554;2023-04-07T16:20:15;1;1;
40371;PMS5003;28564;53.346;-6.554;2023-04-07T16:22:43;0;0;
40371;PMS5003;28564;53.346;-6.554;2023-04-07T16:25:11;0;0;
40371;PMS5003;28564;53.346;-6.554;2023-04-07T16:27:39;0;0;
40371;PMS5003;28564;53.346;-6.554;2023-04-07T16:30:06;0;0;
40371;PMS5003;28564;53.346;-6.554;2023-04-07T16:32:34;0;0;